createdAt,value
2023-05-05T00:00:38.818Z,7.15
2023-05-05T00:03:26.399Z,7.03
2023-05-05T00:06:13.444Z,4.72
2023-05-05T00:09:00.575Z,7.55
2023-05-05T00:11:47.584Z,5.93
2023-05-05T00:14:34.611Z,8.20
2023-05-05T00:17:21.715Z,5.88
2023-05-05T00:20:09.945Z,6.70
2023-05-05T00:22:57.314Z,6.25
2023-05-05T00:25:44.439Z,6.15
2023-05-05T00:28:31.492Z,4.38
2023-05-05T00:31:19.201Z,6.78
2023-05-05T00:34:06.427Z,5.43
2023-05-05T00:36:53.913Z,7.22
2023-05-05T00:39:40.980Z,5.20
2023-05-05T00:42:37.707Z,4.50
2023-05-05T00:45:25.319Z,4.25
2023-05-05T00:48:12.644Z,7.05
2023-05-05T00:50:59.843Z,6.95
2023-05-05T00:53:50.878Z,5.95
2023-05-05T00:56:38.176Z,7.55
2023-05-05T00:59:25.866Z,6.95
2023-05-05T01:02:13.464Z,5.53
2023-05-05T01:05:01.148Z,6.43
2023-05-05T01:08:06.775Z,8.57
2023-05-05T01:11:01.169Z,5.15
2023-05-05T01:13:52.521Z,5.95
2023-05-05T01:16:55.852Z,5.72
2023-05-05T01:20:01.697Z,5.88
2023-05-05T01:22:56.912Z,5.32
2023-05-05T01:26:08.384Z,5.45
2023-05-05T01:29:22.888Z,5.53
2023-05-05T01:32:12.857Z,6.45
2023-05-05T01:35:09.995Z,4.85
2023-05-05T01:38:05.601Z,5.72
2023-05-05T01:41:03.618Z,7.07
2023-05-05T01:43:52.607Z,5.65
2023-05-05T01:46:39.620Z,7.47
2023-05-05T01:49:28.472Z,6.32
2023-05-05T01:52:16.636Z,6.22
2023-05-05T01:55:04.590Z,8.13
2023-05-05T01:57:54.557Z,6.10
2023-05-05T02:00:42.905Z,7.95
2023-05-05T02:03:32.087Z,6.88
2023-05-05T02:06:21.634Z,8.23
2023-05-05T02:09:11.774Z,6.28
2023-05-05T02:12:00.738Z,5.00
2023-05-05T02:14:48.611Z,5.78
2023-05-05T02:17:35.726Z,5.43
2023-05-05T02:20:24.779Z,6.28
2023-05-05T02:23:12.155Z,5.95
2023-05-05T02:26:07.959Z,4.60
2023-05-05T02:29:14.640Z,6.78
2023-05-05T02:32:14.182Z,6.72
2023-05-05T02:35:09.191Z,5.82
2023-05-05T02:38:05.455Z,5.15
2023-05-05T02:40:59.126Z,6.07
2023-05-05T02:43:49.270Z,9.13
2023-05-05T02:46:38.837Z,5.57
2023-05-05T02:49:26.062Z,11.43
2023-05-05T02:52:18.211Z,4.75
2023-05-05T02:55:06.482Z,10.10
2023-05-05T02:58:06.512Z,7.63
2023-05-05T03:01:42.115Z,5.68
2023-05-05T03:04:38.255Z,4.97
2023-05-05T03:07:30.611Z,6.78
2023-05-05T03:10:21.711Z,5.63
2023-05-05T03:13:16.863Z,8.60
2023-05-05T03:16:07.285Z,9.57
2023-05-05T03:18:56.852Z,8.48
2023-05-05T03:21:44.451Z,5.68
2023-05-05T03:24:31.476Z,6.22
2023-05-05T03:27:26.033Z,6.53
2023-05-05T03:30:13.412Z,7.45
2023-05-05T03:33:08.764Z,9.48
2023-05-05T03:35:56.478Z,8.90
2023-05-05T03:38:43.614Z,7.60
2023-05-05T03:41:30.666Z,9.05
2023-05-05T03:44:17.874Z,6.47
2023-05-05T03:47:05.192Z,5.82
2023-05-05T03:49:54.625Z,6.63
2023-05-05T03:52:41.779Z,8.55
2023-05-05T03:55:28.827Z,6.70
2023-05-05T03:58:16.514Z,6.10
2023-05-05T04:01:04.950Z,6.95
2023-05-05T04:03:52.198Z,7.43
2023-05-05T04:06:40.281Z,8.55
2023-05-05T04:09:27.709Z,5.78
2023-05-05T04:12:14.822Z,7.63
2023-05-05T04:15:02.035Z,6.30
2023-05-05T04:17:49.506Z,6.18
2023-05-05T04:20:36.992Z,6.65
2023-05-05T04:23:24.179Z,7.13
2023-05-05T04:26:11.617Z,7.50
2023-05-05T04:28:58.795Z,5.57
2023-05-05T04:31:46.349Z,6.85
2023-05-05T04:34:33.553Z,5.70
2023-05-05T04:37:21.060Z,6.15
2023-05-05T04:40:09.356Z,5.97
2023-05-05T04:42:57.922Z,6.47
2023-05-05T04:45:55.767Z,8.45
2023-05-05T04:48:46.932Z,7.10
2023-05-05T04:51:34.583Z,5.82
2023-05-05T04:54:22.084Z,10.98
2023-05-05T04:57:09.142Z,12.18
2023-05-05T04:59:57.080Z,14.57
2023-05-05T05:02:44.263Z,12.20
2023-05-05T05:05:31.433Z,6.65
2023-05-05T05:08:18.827Z,6.75
2023-05-05T05:11:06.370Z,6.18
2023-05-05T05:13:53.528Z,12.48
2023-05-05T05:16:40.561Z,7.63
2023-05-05T05:19:28.864Z,9.93
2023-05-05T05:22:15.950Z,19.02
2023-05-05T05:25:04.511Z,10.13
2023-05-05T05:28:02.222Z,9.55
2023-05-05T05:30:57.596Z,9.00
2023-05-05T05:33:45.150Z,9.57
2023-05-05T05:36:34.067Z,9.60
2023-05-05T05:39:21.836Z,7.90
2023-05-05T05:42:08.907Z,7.10
2023-05-05T05:44:58.393Z,7.50
2023-05-05T05:47:45.959Z,32.28
2023-05-05T05:50:33.199Z,11.75
2023-05-05T05:53:22.470Z,14.00
2023-05-05T05:56:10.647Z,11.38
2023-05-05T05:58:58.323Z,13.55
2023-05-05T06:01:45.371Z,6.43
2023-05-05T06:04:32.611Z,12.02
2023-05-05T06:07:20.618Z,10.80
2023-05-05T06:10:25.894Z,6.60
2023-05-05T06:13:19.381Z,7.05
2023-05-05T06:16:10.047Z,7.50
2023-05-05T06:18:58.857Z,6.70
2023-05-05T06:21:45.922Z,7.32
2023-05-05T06:24:33.137Z,10.38
2023-05-05T06:27:20.653Z,5.97
2023-05-05T06:30:09.398Z,11.73
2023-05-05T06:32:56.869Z,7.10
2023-05-05T06:35:43.963Z,5.50
2023-05-05T06:38:31.008Z,8.55
2023-05-05T06:41:18.247Z,7.28
2023-05-05T06:44:05.519Z,6.38
2023-05-05T06:46:53.729Z,8.07
2023-05-05T06:49:40.772Z,7.47
2023-05-05T06:52:27.814Z,7.72
2023-05-05T06:55:14.789Z,7.68
2023-05-05T06:58:02.131Z,7.35
2023-05-05T07:00:49.189Z,7.68
2023-05-05T07:03:36.246Z,8.65
2023-05-05T07:06:23.445Z,5.38
2023-05-05T07:09:10.513Z,6.00
2023-05-05T07:11:57.528Z,7.55
2023-05-05T07:14:45.966Z,5.40
2023-05-05T07:17:33.079Z,7.43
2023-05-05T07:20:20.141Z,6.90
2023-05-05T07:23:07.182Z,6.85
2023-05-05T07:25:55.071Z,8.57
2023-05-05T07:28:43.112Z,7.05
2023-05-05T07:31:30.397Z,9.80
2023-05-05T07:34:17.442Z,10.02
2023-05-05T07:37:05.127Z,10.55
2023-05-05T07:39:52.120Z,5.40
2023-05-05T07:42:39.274Z,5.35
2023-05-05T07:45:26.650Z,8.23
2023-05-05T07:48:13.652Z,7.70
2023-05-05T07:51:00.754Z,6.72
2023-05-05T07:53:47.828Z,6.40
2023-05-05T07:56:34.911Z,5.65
2023-05-05T07:59:22.150Z,9.50
2023-05-05T08:02:12.548Z,10.13
2023-05-05T08:04:59.610Z,5.30
2023-05-05T08:07:46.978Z,8.80
2023-05-05T08:10:34.091Z,6.80
2023-05-05T08:13:21.166Z,7.20
2023-05-05T08:16:09.039Z,10.30
2023-05-05T08:18:56.284Z,8.85
2023-05-05T08:21:43.357Z,10.65
2023-05-05T08:24:30.808Z,10.05
2023-05-05T08:27:17.848Z,9.77
2023-05-05T08:30:05.612Z,12.43
2023-05-05T08:32:52.756Z,12.50
2023-05-05T08:35:39.952Z,10.48
2023-05-05T08:38:27.141Z,9.60
2023-05-05T08:41:17.968Z,11.50
2023-05-05T08:44:05.053Z,10.48
2023-05-05T08:46:53.106Z,9.27
2023-05-05T08:49:45.773Z,10.02
2023-05-05T08:52:44.002Z,8.43
2023-05-05T08:55:35.279Z,8.82
2023-05-05T08:58:23.582Z,7.53
2023-05-05T09:01:11.440Z,10.00
2023-05-05T09:03:59.606Z,8.43
2023-05-05T09:06:46.742Z,9.05
2023-05-05T09:09:34.146Z,7.35
2023-05-05T09:12:22.320Z,8.65
2023-05-05T09:15:11.604Z,7.20
2023-05-05T09:17:59.880Z,7.38
2023-05-05T09:20:47.036Z,8.73
2023-05-05T09:23:34.085Z,7.72
2023-05-05T09:26:21.275Z,8.68
2023-05-05T09:29:08.342Z,9.20
2023-05-05T09:32:05.496Z,8.23
2023-05-05T09:35:01.852Z,8.40
2023-05-05T09:37:48.947Z,8.95
2023-05-05T09:40:46.615Z,9.10
2023-05-05T09:43:51.852Z,9.02
2023-05-05T09:46:49.139Z,6.80
2023-05-05T09:49:38.375Z,8.77
2023-05-05T09:52:25.611Z,8.93
2023-05-05T09:55:19.003Z,11.73
2023-05-05T09:58:18.412Z,7.10
2023-05-05T10:01:05.770Z,9.52
2023-05-05T10:03:52.834Z,10.60
2023-05-05T10:06:44.220Z,7.97
2023-05-05T10:09:34.087Z,10.30
2023-05-05T10:12:21.508Z,9.18
2023-05-05T10:15:10.155Z,9.18
2023-05-05T10:18:07.683Z,8.65
2023-05-05T10:20:57.828Z,9.75
2023-05-05T10:24:02.222Z,9.43
2023-05-05T10:26:51.889Z,10.25
2023-05-05T10:29:54.951Z,8.18
2023-05-05T10:32:57.366Z,12.13
2023-05-05T10:35:59.530Z,7.93
2023-05-05T10:38:46.673Z,7.30
2023-05-05T10:41:34.822Z,10.05
2023-05-05T10:44:22.960Z,7.53
2023-05-05T10:47:10.860Z,7.03
2023-05-05T10:50:07.356Z,12.27
2023-05-05T10:53:19.299Z,9.30
2023-05-05T10:56:40.219Z,7.55
2023-05-05T10:59:39.179Z,6.25
2023-05-05T11:02:28.938Z,9.68
2023-05-05T11:05:23.336Z,8.88
2023-05-05T11:08:26.995Z,6.35
2023-05-05T11:11:14.279Z,8.55
2023-05-05T11:14:22.277Z,9.10
2023-05-05T11:17:48.016Z,8.05
2023-05-05T11:20:40.803Z,7.70
2023-05-05T11:23:28.702Z,8.85
2023-05-05T11:26:17.587Z,7.85
2023-05-05T11:29:05.273Z,7.78
2023-05-05T11:32:11.585Z,6.97
2023-05-05T11:34:58.687Z,11.85
2023-05-05T11:37:46.352Z,8.98
2023-05-05T11:40:36.768Z,10.95
2023-05-05T11:43:23.833Z,9.88
2023-05-05T11:46:12.354Z,10.23
2023-05-05T11:48:59.406Z,10.80
2023-05-05T11:51:59.614Z,11.88
2023-05-05T11:54:48.569Z,14.43
2023-05-05T11:57:35.610Z,12.30
2023-05-05T12:00:32.930Z,10.40
2023-05-05T12:03:20.141Z,12.82
2023-05-05T12:06:08.606Z,12.30
2023-05-05T12:08:55.830Z,12.93
2023-05-05T12:11:53.309Z,12.95
2023-05-05T12:14:54.130Z,12.75
2023-05-05T12:17:44.853Z,13.10
2023-05-05T12:20:33.432Z,22.00
2023-05-05T12:23:21.128Z,12.60
2023-05-05T12:26:08.890Z,13.43
2023-05-05T12:28:59.547Z,14.25
2023-05-05T12:31:46.614Z,14.65
2023-05-05T12:34:33.814Z,12.68
2023-05-05T12:37:22.509Z,15.80
2023-05-05T12:40:42.188Z,15.10
2023-05-05T12:43:33.869Z,14.13
2023-05-05T12:46:21.070Z,12.77
2023-05-05T12:49:09.624Z,15.05
2023-05-05T12:51:57.151Z,13.05
2023-05-05T12:54:58.584Z,13.07
2023-05-05T12:58:04.728Z,13.30
2023-05-05T13:01:10.948Z,13.45
2023-05-05T13:04:13.886Z,12.70
2023-05-05T13:07:13.752Z,15.25
2023-05-05T13:10:09.774Z,15.48
2023-05-05T13:12:57.832Z,13.98
2023-05-05T13:15:44.989Z,12.27
2023-05-05T13:18:32.048Z,10.25
2023-05-05T13:21:19.330Z,10.05
2023-05-05T13:24:21.328Z,11.15
2023-05-05T13:27:12.902Z,9.63
2023-05-05T13:30:00.188Z,8.90
2023-05-05T13:32:47.236Z,9.23
2023-05-05T13:35:34.281Z,8.80
2023-05-05T13:38:21.484Z,9.45
2023-05-05T13:41:08.499Z,8.00
2023-05-05T13:43:56.457Z,9.68
2023-05-05T13:46:43.537Z,7.70
2023-05-05T13:49:30.609Z,8.60
2023-05-05T13:52:18.097Z,7.82
2023-05-05T13:55:05.712Z,7.60
2023-05-05T13:57:52.785Z,8.98
2023-05-05T14:00:40.423Z,8.55
2023-05-05T14:03:27.486Z,6.60
2023-05-05T14:06:14.612Z,8.45
2023-05-05T14:09:01.701Z,7.78
2023-05-05T14:11:48.719Z,23.15
2023-05-05T14:14:36.017Z,10.30
2023-05-05T14:17:23.154Z,9.82
2023-05-05T14:20:10.823Z,8.80
2023-05-05T14:22:57.880Z,10.23
2023-05-05T14:25:44.882Z,13.07
2023-05-05T14:28:31.955Z,10.02
2023-05-05T14:31:18.931Z,10.18
2023-05-05T14:34:05.944Z,10.85
2023-05-05T14:36:52.918Z,12.00
2023-05-05T14:39:39.930Z,11.52
2023-05-05T14:42:27.030Z,13.20
2023-05-05T14:45:14.053Z,11.70
2023-05-05T14:48:01.048Z,10.13
2023-05-05T14:50:48.747Z,13.30
2023-05-05T14:53:35.846Z,11.75
2023-05-05T14:56:24.304Z,12.32
2023-05-05T14:59:11.319Z,12.88
2023-05-05T15:01:58.457Z,13.65
2023-05-05T15:04:45.853Z,15.70
2023-05-05T15:07:33.751Z,17.67
2023-05-05T15:10:22.056Z,20.92
2023-05-05T15:13:09.404Z,23.17
2023-05-05T15:15:56.511Z,21.15
2023-05-05T15:18:43.610Z,22.27
2023-05-05T15:21:31.759Z,26.27
2023-05-05T15:24:19.747Z,22.98
2023-05-05T15:27:07.051Z,22.45
2023-05-05T15:29:55.181Z,24.05
2023-05-05T15:32:42.864Z,25.40
2023-05-05T15:35:30.023Z,38.55
2023-05-05T15:38:16.999Z,29.10
2023-05-05T15:41:06.956Z,34.95
2023-05-05T15:43:53.943Z,17.55
2023-05-05T15:46:41.145Z,14.45
2023-05-05T15:49:28.161Z,9.05
2023-05-05T15:52:15.298Z,9.73
2023-05-05T15:55:02.255Z,6.50
2023-05-05T15:57:49.303Z,9.38
2023-05-05T16:00:36.364Z,9.73
2023-05-05T16:03:23.463Z,12.27
2023-05-05T16:06:13.672Z,7.70
2023-05-05T16:09:00.698Z,8.88
2023-05-05T16:11:48.049Z,15.80
2023-05-05T16:14:35.064Z,10.52
2023-05-05T16:17:22.797Z,10.30
2023-05-05T16:20:10.674Z,11.23
2023-05-05T16:22:57.701Z,9.82
2023-05-05T16:25:44.835Z,13.90
2023-05-05T16:28:34.092Z,8.30
2023-05-05T16:31:21.232Z,10.15
2023-05-05T16:34:08.403Z,9.32
2023-05-05T16:36:55.999Z,9.10
2023-05-05T16:39:43.102Z,9.23
2023-05-05T16:42:30.134Z,9.40
2023-05-05T16:45:17.175Z,8.63
2023-05-05T16:48:05.627Z,7.93
2023-05-05T16:50:56.486Z,7.80
2023-05-05T16:53:43.539Z,8.68
2023-05-05T16:56:30.704Z,8.90
2023-05-05T16:59:19.139Z,8.25
2023-05-05T17:02:06.187Z,9.00
2023-05-05T17:04:53.320Z,8.05
2023-05-05T17:07:40.605Z,9.20
2023-05-05T17:10:27.632Z,8.10
2023-05-05T17:13:15.021Z,8.25
2023-05-05T17:16:02.134Z,7.88
2023-05-05T17:18:49.143Z,8.20
2023-05-05T17:21:36.169Z,10.23
2023-05-05T17:24:23.988Z,8.98
2023-05-05T17:27:11.204Z,9.48
2023-05-05T17:29:58.606Z,8.20
2023-05-05T17:32:46.172Z,7.05
2023-05-05T17:35:33.213Z,7.38
2023-05-05T17:38:20.229Z,7.30
2023-05-05T17:41:07.461Z,6.70
2023-05-05T17:43:54.538Z,7.82
2023-05-05T17:46:41.855Z,7.82
2023-05-05T17:49:28.900Z,7.32
2023-05-05T17:52:15.930Z,8.02
2023-05-05T17:55:03.018Z,6.90
2023-05-05T17:57:50.204Z,7.15
2023-05-05T18:00:37.355Z,6.95
2023-05-05T18:03:24.657Z,7.07
2023-05-05T18:06:11.938Z,7.70
2023-05-05T18:08:58.989Z,7.93
2023-05-05T18:11:46.054Z,8.02
2023-05-05T18:14:33.332Z,6.90
2023-05-05T18:17:21.108Z,6.93
2023-05-05T18:20:08.744Z,8.48
2023-05-05T18:22:55.876Z,7.60
2023-05-05T18:25:42.897Z,7.80
2023-05-05T18:28:29.919Z,8.07
2023-05-05T18:31:16.978Z,6.78
2023-05-05T18:34:04.004Z,8.10
2023-05-05T18:36:53.458Z,7.25
2023-05-05T18:39:42.665Z,7.35
2023-05-05T18:42:31.065Z,7.45
2023-05-05T18:45:18.097Z,7.57
2023-05-05T18:48:05.605Z,8.13
2023-05-05T18:50:52.886Z,7.72
2023-05-05T18:53:39.883Z,7.50
2023-05-05T18:56:27.044Z,8.90
2023-05-05T18:59:14.098Z,9.15
2023-05-05T19:02:02.260Z,8.30
2023-05-05T19:04:49.329Z,7.65
2023-05-05T19:07:36.652Z,7.70
2023-05-05T19:10:23.688Z,8.05
2023-05-05T19:13:11.301Z,8.60
2023-05-05T19:15:58.390Z,7.85
2023-05-05T19:18:45.516Z,7.63
2023-05-05T19:21:32.490Z,8.13
2023-05-05T19:24:19.551Z,6.75
2023-05-05T19:27:08.038Z,6.45
2023-05-05T19:29:55.306Z,7.22
2023-05-05T19:32:42.497Z,6.60
2023-05-05T19:35:31.145Z,5.90
2023-05-05T19:38:18.178Z,5.70
2023-05-05T19:41:05.350Z,6.30
2023-05-05T19:43:52.637Z,6.28
2023-05-05T19:46:39.732Z,6.47
2023-05-05T19:49:26.964Z,5.80
2023-05-05T19:52:14.101Z,6.45
2023-05-05T19:55:01.499Z,7.07
2023-05-05T19:57:48.542Z,7.25
2023-05-05T20:00:35.989Z,8.20
2023-05-05T20:03:23.099Z,9.25
2023-05-05T20:06:10.171Z,8.82
2023-05-05T20:08:57.284Z,8.45
2023-05-05T20:11:44.426Z,8.80
2023-05-05T20:14:31.498Z,9.27
2023-05-05T20:17:20.158Z,10.35
2023-05-05T20:20:07.907Z,9.50
2023-05-05T20:22:54.947Z,9.95
2023-05-05T20:25:41.988Z,10.75
2023-05-05T20:28:31.409Z,11.35
2023-05-05T20:31:18.556Z,15.95
2023-05-05T20:34:06.006Z,12.10
2023-05-05T20:36:54.103Z,12.77
2023-05-05T20:39:42.239Z,12.90
2023-05-05T20:42:29.677Z,13.50
2023-05-05T20:45:16.930Z,13.73
2023-05-05T20:48:05.545Z,14.02
2023-05-05T20:50:52.811Z,14.13
2023-05-05T20:53:39.901Z,14.38
2023-05-05T20:56:26.970Z,15.38
2023-05-05T20:59:13.972Z,17.05
2023-05-05T21:02:01.061Z,17.00
2023-05-05T21:04:48.154Z,16.77
2023-05-05T21:07:35.260Z,15.80
2023-05-05T21:10:22.364Z,15.18
2023-05-05T21:13:09.479Z,15.50
2023-05-05T21:15:56.676Z,16.20
2023-05-05T21:18:46.619Z,15.55
2023-05-05T21:21:33.850Z,17.10
2023-05-05T21:24:21.034Z,19.23
2023-05-05T21:27:08.018Z,16.42
2023-05-05T21:29:54.972Z,16.60
2023-05-05T21:32:42.207Z,16.88
2023-05-05T21:35:29.262Z,16.15
2023-05-05T21:38:16.601Z,15.38
2023-05-05T21:41:03.686Z,17.25
2023-05-05T21:43:50.761Z,17.58
2023-05-05T21:46:37.926Z,18.35
2023-05-05T21:49:24.973Z,17.90
2023-05-05T21:52:12.069Z,17.67
2023-05-05T21:54:59.111Z,19.67
2023-05-05T21:57:46.221Z,18.83
2023-05-05T22:00:33.295Z,20.63
2023-05-05T22:03:20.789Z,21.92
2023-05-05T22:06:07.929Z,21.60
2023-05-05T22:08:56.585Z,22.60
2023-05-05T22:11:43.705Z,22.02
2023-05-05T22:14:30.747Z,24.27
2023-05-05T22:17:18.098Z,23.40
2023-05-05T22:20:05.827Z,23.15
2023-05-05T22:22:52.943Z,22.02
2023-05-05T22:25:40.131Z,22.70
2023-05-05T22:28:27.720Z,20.58
2023-05-05T22:31:15.040Z,21.40
2023-05-05T22:34:02.437Z,21.85
2023-05-05T22:36:49.873Z,22.92
2023-05-05T22:39:36.926Z,21.42
2023-05-05T22:42:24.056Z,23.98
2023-05-05T22:45:11.805Z,21.95
2023-05-05T22:47:59.321Z,23.83
2023-05-05T22:50:46.566Z,21.58
2023-05-05T22:53:33.809Z,21.48
2023-05-05T22:56:20.990Z,19.77
2023-05-05T22:59:08.131Z,20.83
2023-05-05T23:01:55.753Z,19.30
2023-05-05T23:04:46.253Z,18.30
2023-05-05T23:07:33.546Z,16.98
2023-05-05T23:10:20.613Z,16.58
2023-05-05T23:13:07.767Z,17.48
2023-05-05T23:15:54.887Z,18.27
2023-05-05T23:18:42.020Z,15.85
2023-05-05T23:21:29.368Z,16.40
2023-05-05T23:24:19.122Z,15.02
2023-05-05T23:27:06.127Z,13.45
2023-05-05T23:29:53.289Z,13.57
2023-05-05T23:32:40.436Z,13.07
2023-05-05T23:35:27.725Z,12.77
2023-05-05T23:38:14.786Z,13.23
2023-05-05T23:41:01.981Z,14.00
2023-05-05T23:43:49.045Z,13.88
2023-05-05T23:46:36.296Z,13.07
2023-05-05T23:49:24.879Z,13.45
2023-05-05T23:52:12.615Z,11.40
2023-05-05T23:55:00.212Z,12.43
2023-05-05T23:57:47.288Z,11.73
